Time;durP1;ratioP1;P1;durP2;ratioP2;P2;SDS_P1;SDS_P2;PMS_P1;PMS_P2;Temp;Humidity;BMP_temperature;BMP_pressure;BME280_temperature;BME280_humidity;BME280_pressure;Samples;Min_cycle;Max_cycle;Signal;HPM_P1;HPM_P2
2021/05/23 00:03:17;;;;;;;7.60;5.42;;;;;;;11.37;77.71;99648.28;2735761;86;21127;-66
2021/05/23 00:07:24;;;;;;;13.10;5.92;;;;;;;11.50;77.48;99643.13;2740175;86;21703;-67
2021/05/23 00:11:26;;;;;;;13.85;7.12;;;;;;;11.64;77.19;99645.78;2739557;86;21091;-67
2021/05/23 00:15:41;;;;;;;9.50;5.70;;;;;;;11.68;76.63;99653.81;2740227;86;21052;-67
2021/05/23 00:19:43;;;;;;;10.73;5.27;;;;;;;11.74;76.22;99649.21;2740192;86;21111;-67
2021/05/23 00:23:46;;;;;;;9.53;6.08;;;;;;;11.74;75.55;99657.72;2740016;86;22285;-67
2021/05/23 00:27:48;;;;;;;5.15;4.53;;;;;;;11.72;75.12;99663.18;2760965;85;21080;-67
2021/05/23 00:31:52;;;;;;;9.43;5.05;;;;;;;11.70;74.59;99666.48;2785577;85;21644;-69
2021/05/23 00:35:54;;;;;;;8.58;4.12;;;;;;;11.64;74.27;99668.42;2785829;85;21952;-67
2021/05/23 00:39:56;;;;;;;5.97;3.35;;;;;;;11.38;74.43;99673.07;2785789;85;21088;-69
2021/05/23 00:43:58;;;;;;;4.97;3.47;;;;;;;11.14;74.43;99683.25;2785585;85;22282;-65
2021/05/23 00:47:59;;;;;;;5.42;2.85;;;;;;;10.95;74.59;99678.80;2785796;85;21111;-66
2021/05/23 00:52:01;;;;;;;6.37;3.17;;;;;;;10.80;74.69;99676.23;2785657;85;21123;-69
2021/05/23 00:56:04;;;;;;;6.12;2.75;;;;;;;10.70;74.75;99670.92;2785709;85;21613;-67
2021/05/23 01:00:09;;;;;;;4.72;2.98;;;;;;;10.61;74.54;99668.66;2785536;85;21091;-68
2021/05/23 01:04:11;;;;;;;11.70;4.22;;;;;;;10.53;74.62;99664.52;2794145;85;21103;-69
2021/05/23 01:08:13;;;;;;;5.85;3.00;;;;;;;10.50;74.61;99660.81;2794810;85;21060;-66
2021/05/23 01:12:38;;;;;;;4.70;2.85;;;;;;;10.41;74.42;99669.96;2794764;85;21064;-66
2021/05/23 01:16:55;;;;;;;7.42;2.75;;;;;;;10.34;74.58;99666.16;2794756;85;21044;-67
2021/05/23 01:21:00;;;;;;;5.87;3.42;;;;;;;10.23;74.83;99678.27;2794948;85;21177;-67
2021/05/23 01:25:12;;;;;;;2.70;2.50;;;;;;;10.19;75.03;99682.16;2795226;85;21098;-67
2021/05/23 01:29:14;;;;;;;5.30;3.27;;;;;;;10.16;74.87;99677.98;2794914;85;21130;-67
2021/05/23 01:33:20;;;;;;;2.87;2.22;;;;;;;10.13;74.86;99681.74;2794499;85;21130;-69
2021/05/23 01:37:24;;;;;;;5.80;2.77;;;;;;;10.11;74.80;99688.16;2794644;85;21128;-68
2021/05/23 01:41:27;;;;;;;4.20;3.22;;;;;;;10.11;74.74;99690.82;2794338;85;21548;-66
2021/05/23 01:45:30;;;;;;;3.05;2.50;;;;;;;10.02;74.70;99698.30;2794368;83;21640;-67
2021/05/23 01:49:32;;;;;;;2.22;2.02;;;;;;;9.91;74.97;99698.75;2794707;85;21048;-66
2021/05/23 01:53:36;;;;;;;2.87;1.80;;;;;;;9.88;74.84;99699.53;2794857;85;21640;-66
2021/05/23 01:57:37;;;;;;;5.22;1.77;;;;;;;9.85;74.76;99705.47;2794502;85;21127;-68
2021/05/23 02:01:39;;;;;;;2.27;1.65;;;;;;;9.81;74.75;99712.00;2795146;85;21142;-67
2021/05/23 02:05:44;;;;;;;6.00;2.72;;;;;;;9.80;74.67;99717.47;2794902;85;21077;-67
2021/05/23 02:09:46;;;;;;;4.83;1.60;;;;;;;9.63;74.48;99717.13;2794772;84;21107;-68
2021/05/23 02:13:53;;;;;;;4.25;1.90;;;;;;;9.49;75.12;99720.98;2794774;85;21107;-67
2021/05/23 02:17:55;;;;;;;3.20;1.75;;;;;;;9.48;75.48;99723.29;2794503;85;21122;-67
2021/05/23 02:21:57;;;;;;;3.17;2.05;;;;;;;9.45;75.57;99718.72;2795044;85;22261;-66
2021/05/23 02:25:58;;;;;;;8.45;2.80;;;;;;;9.47;75.66;99715.45;2795009;85;21671;-66
2021/05/23 02:30:00;;;;;;;3.05;2.05;;;;;;;9.49;75.56;99720.98;2795044;85;21076;-66
2021/05/23 02:34:03;;;;;;;4.37;2.75;;;;;;;9.50;75.49;99714.70;2795090;85;21158;-67
2021/05/23 02:38:07;;;;;;;3.83;1.90;;;;;;;9.49;75.43;99722.31;2794735;85;21142;-68
2021/05/23 02:42:09;;;;;;;7.25;2.75;;;;;;;9.51;75.43;99720.37;2794721;85;21119;-66
2021/05/23 02:46:12;;;;;;;5.00;2.10;;;;;;;9.55;75.61;99720.95;2795039;85;21151;-68
2021/05/23 02:50:18;;;;;;;4.08;2.95;;;;;;;9.51;75.41;99719.51;2795038;85;21118;-67
2021/05/23 02:54:20;;;;;;;2.85;2.37;;;;;;;9.43;75.75;99719.70;2794930;85;21087;-70
2021/05/23 02:58:23;;;;;;;2.25;2.05;;;;;;;9.27;76.20;99724.16;2794644;85;21091;-69
2021/05/23 03:02:24;;;;;;;3.90;1.82;;;;;;;9.22;76.44;99725.52;2777642;84;21097;-67
2021/05/23 03:06:26;;;;;;;6.60;2.72;;;;;;;9.27;76.77;99725.50;2742982;86;21145;-68
2021/05/23 03:10:36;;;;;;;3.42;2.42;;;;;;;9.36;76.73;99724.34;2743226;86;21106;-68
2021/05/23 03:14:41;;;;;;;4.30;2.27;;;;;;;9.38;76.52;99721.06;2742153;86;21599;-67
2021/05/23 03:18:42;;;;;;;3.20;2.40;;;;;;;9.40;76.74;99733.71;2743188;86;21129;-68
2021/05/23 03:22:46;;;;;;;2.52;1.60;;;;;;;9.46;76.51;99740.31;2742962;86;21133;-69
2021/05/23 03:26:49;;;;;;;3.62;2.30;;;;;;;9.48;76.56;99745.86;2743093;86;21612;-68
2021/05/23 03:30:50;;;;;;;4.92;2.37;;;;;;;9.62;76.62;99756.61;2743148;86;21086;-68
2021/05/23 03:34:52;;;;;;;3.37;1.85;;;;;;;9.78;76.30;99758.77;2743089;86;21129;-68
2021/05/23 03:38:54;;;;;;;4.75;1.82;;;;;;;9.92;76.11;99758.05;2743008;86;21106;-68
2021/05/23 03:42:56;;;;;;;9.33;2.42;;;;;;;10.08;75.96;99757.53;2742993;86;21053;-68
2021/05/23 03:46:58;;;;;;;2.77;1.87;;;;;;;10.27;76.05;99752.77;2743429;86;21105;-67
2021/05/23 03:51:00;;;;;;;3.47;1.12;;;;;;;10.39;74.94;99754.31;2743326;86;21054;-66
2021/05/23 03:55:06;;;;;;;1.70;1.57;;;;;;;10.50;74.37;99759.20;2743233;86;21090;-66
2021/05/23 03:59:08;;;;;;;2.83;1.98;;;;;;;10.63;74.77;99754.46;2743320;86;21074;-66
2021/05/23 04:03:10;;;;;;;5.00;1.12;;;;;;;10.83;75.22;99773.09;2761656;84;21131;-66
2021/05/23 04:07:18;;;;;;;4.05;2.15;;;;;;;11.06;74.65;99778.11;2785922;85;21107;-66
2021/05/23 04:11:23;;;;;;;2.70;2.27;;;;;;;11.29;74.88;99784.80;2785802;85;21139;-67
2021/05/23 04:15:24;;;;;;;4.22;2.15;;;;;;;11.65;74.25;99785.98;2744346;85;21127;-66
2021/05/23 04:19:25;;;;;;;4.10;1.65;;;;;;;12.49;76.63;99799.36;2740387;86;21420;-66
2021/05/23 04:23:27;;;;;;;1.52;1.30;;;;;;;13.62;74.93;99797.48;2740353;85;21093;-67
2021/05/23 04:27:29;;;;;;;4.75;1.45;;;;;;;14.30;72.94;99793.63;2740060;86;21122;-69
2021/05/23 04:31:30;;;;;;;2.77;2.30;;;;;;;15.46;70.00;99802.32;2741365;86;21064;-66
2021/05/23 04:35:36;;;;;;;4.00;1.25;;;;;;;16.81;70.25;99797.92;2742037;86;21139;-67
2021/05/23 04:39:37;;;;;;;2.02;1.25;;;;;;;18.10;65.46;99788.17;2743029;86;21127;-66
2021/05/23 04:43:39;;;;;;;3.00;1.65;;;;;;;19.00;61.33;99787.94;2742414;86;21036;-66
2021/05/23 04:47:42;;;;;;;1.52;1.05;;;;;;;19.64;58.41;99786.14;2744007;86;21084;-68
2021/05/23 04:51:44;;;;;;;1.62;1.22;;;;;;;19.48;54.69;99785.94;2744182;86;21056;-67
2021/05/23 04:55:46;;;;;;;5.15;1.57;;;;;;;19.34;56.65;99786.86;2719181;86;21143;-66
2021/05/23 04:59:50;;;;;;;2.92;1.20;;;;;;;19.81;57.01;99780.43;2744542;86;21107;-66
2021/05/23 05:03:51;;;;;;;2.80;1.37;;;;;;;20.45;55.65;99779.78;2749415;86;21087;-66
2021/05/23 05:07:53;;;;;;;5.30;1.37;;;;;;;21.06;53.98;99787.50;2754096;86;21091;-66
2021/05/23 05:11:55;;;;;;;4.58;1.70;;;;;;;21.54;52.12;99787.80;2754351;85;21044;-67
2021/05/23 05:15:58;;;;;;;2.65;1.30;;;;;;;21.96;51.07;99789.39;2755091;86;21059;-67
2021/05/23 05:20:00;;;;;;;1.82;1.32;;;;;;;22.25;50.76;99800.76;2755852;86;21083;-66
2021/05/23 05:24:10;;;;;;;7.12;2.12;;;;;;;22.59;51.10;99801.97;2755649;86;21072;-68
2021/05/23 05:28:11;;;;;;;3.02;1.57;;;;;;;22.81;49.05;99806.00;2754975;86;21111;-67
2021/05/23 05:32:13;;;;;;;2.17;1.52;;;;;;;22.83;48.86;99819.35;2754541;86;21166;-68
2021/05/23 05:36:15;;;;;;;6.42;1.57;;;;;;;22.56;49.14;99826.27;2754410;86;21095;-66
2021/05/23 05:40:17;;;;;;;3.22;1.45;;;;;;;21.85;49.18;99823.91;2753781;86;21147;-66
2021/05/23 05:44:19;;;;;;;6.33;1.50;;;;;;;21.09;51.20;99832.23;2753396;86;21166;-68
2021/05/23 05:48:22;;;;;;;2.17;1.45;;;;;;;20.98;52.73;99831.79;2753092;86;21087;-68
2021/05/23 05:52:23;;;;;;;5.25;1.57;;;;;;;20.69;52.78;99841.90;2753148;86;22500;-68
2021/05/23 05:56:25;;;;;;;5.97;1.45;;;;;;;20.22;51.77;99838.17;2753394;86;21103;-67
2021/05/23 06:00:27;;;;;;;5.95;1.52;;;;;;;19.55;53.49;99846.65;2753246;86;21119;-66
2021/05/23 06:04:29;;;;;;;4.97;1.65;;;;;;;19.15;55.33;99844.46;2747918;86;21183;-66
2021/05/23 06:08:31;;;;;;;5.67;1.40;;;;;;;18.79;55.68;99850.70;2743731;86;21684;-67
2021/05/23 06:12:33;;;;;;;1.75;1.02;;;;;;;18.49;56.84;99849.44;2744020;86;21100;-67
2021/05/23 06:16:35;;;;;;;3.37;1.17;;;;;;;18.20;57.72;99857.86;2743593;86;21127;-66
2021/05/23 06:20:37;;;;;;;2.83;1.35;;;;;;;17.95;58.07;99860.28;2743828;86;21155;-66
2021/05/23 06:24:39;;;;;;;3.17;1.05;;;;;;;17.67;58.71;99862.25;2744071;86;21135;-67
2021/05/23 06:28:42;;;;;;;2.87;1.25;;;;;;;17.40;60.41;99865.02;2744000;86;21119;-67
2021/05/23 06:32:44;;;;;;;4.70;1.65;;;;;;;17.11;61.95;99870.63;2742120;86;21135;-67
2021/05/23 06:36:47;;;;;;;5.12;2.20;;;;;;;16.91;61.98;99877.78;2736665;85;21085;-67
2021/05/23 06:40:48;;;;;;;2.60;2.12;;;;;;;16.96;62.30;99875.39;2720422;86;21094;-66
2021/05/23 06:44:50;;;;;;;5.65;2.80;;;;;;;17.02;62.63;99866.31;2719414;87;21162;-63
2021/05/23 06:48:52;;;;;;;3.22;1.92;;;;;;;17.05;62.63;99872.67;2719363;87;21157;-63
2021/05/23 06:52:54;;;;;;;4.37;2.12;;;;;;;16.90;62.34;99873.42;2718442;87;21595;-66
2021/05/23 06:56:55;;;;;;;4.62;2.12;;;;;;;16.68;62.42;99875.05;2718369;87;21098;-66
2021/05/23 07:00:59;;;;;;;1.65;1.20;;;;;;;16.42;64.43;99870.30;2717486;87;21118;-67
2021/05/23 07:05:01;;;;;;;2.20;1.40;;;;;;;16.12;63.21;99870.58;2717284;86;21630;-66
2021/05/23 07:09:04;;;;;;;5.47;1.92;;;;;;;15.88;63.82;99869.60;2717057;87;21062;-66
2021/05/23 07:13:05;;;;;;;2.15;1.82;;;;;;;15.75;63.87;99874.64;2717325;87;21153;-65
2021/05/23 07:17:07;;;;;;;1.72;0.82;;;;;;;15.73;65.10;99878.00;2717349;87;21102;-67
2021/05/23 07:21:09;;;;;;;2.02;1.42;;;;;;;15.81;64.87;99883.34;2717763;86;21327;-67
2021/05/23 07:25:14;;;;;;;2.87;1.02;;;;;;;15.80;66.37;99896.42;2718179;87;21070;-67
2021/05/23 07:29:16;;;;;;;6.20;1.12;;;;;;;15.94;66.07;99904.33;2718244;87;21078;-68
2021/05/23 07:33:18;;;;;;;3.80;0.95;;;;;;;16.06;66.28;99915.54;2717889;87;21102;-67
2021/05/23 07:37:20;;;;;;;1.40;0.88;;;;;;;16.19;66.64;99915.00;2717783;86;21082;-67
2021/05/23 07:41:23;;;;;;;11.18;1.45;;;;;;;16.36;65.71;99918.46;2719005;87;21031;-67
2021/05/23 07:45:25;;;;;;;6.67;1.95;;;;;;;16.50;64.74;99920.44;2719344;87;21089;-69
2021/05/23 07:49:27;;;;;;;4.45;1.70;;;;;;;16.68;65.49;99916.15;2718730;87;21090;-63
2021/05/23 07:53:29;;;;;;;2.77;1.40;;;;;;;16.88;64.14;99917.06;2692167;87;21603;-62
2021/05/23 07:57:31;;;;;;;6.30;2.17;;;;;;;16.94;62.50;99917.72;2718346;87;21102;-63
2021/05/23 08:01:34;;;;;;;2.37;1.40;;;;;;;16.98;63.00;99915.03;2718435;87;21102;-62
2021/05/23 08:05:36;;;;;;;3.22;1.40;;;;;;;17.03;63.41;99925.75;2710215;86;21651;-65
2021/05/23 08:09:38;;;;;;;3.20;0.60;;;;;;;17.07;63.52;99927.06;2664988;89;21107;-66
2021/05/23 08:13:39;;;;;;;3.33;1.17;;;;;;;17.34;62.17;99922.20;2638372;90;21647;-64
2021/05/23 08:17:45;;;;;;;3.83;1.57;;;;;;;17.72;60.85;99924.92;2675945;87;21088;-63
2021/05/23 08:21:48;;;;;;;1.67;1.22;;;;;;;17.97;60.22;99928.72;2713094;87;21045;-63
2021/05/23 08:25:55;;;;;;;1.15;0.62;;;;;;;18.01;59.29;99940.78;2712835;87;21137;-62
2021/05/23 08:29:59;;;;;;;1.07;0.72;;;;;;;17.97;60.16;99951.06;2713017;87;21049;-62
2021/05/23 08:34:03;;;;;;;1.55;0.60;;;;;;;17.85;60.31;99947.98;2713249;87;21399;-62
2021/05/23 08:38:06;;;;;;;1.80;0.70;;;;;;;17.95;61.26;99955.80;2713398;87;21125;-62
2021/05/23 08:42:09;;;;;;;2.25;0.75;;;;;;;18.35;59.63;99946.20;2713326;87;21061;-62
2021/05/23 08:46:10;;;;;;;4.75;0.70;;;;;;;18.77;59.28;99943.00;2712949;87;21144;-63
2021/05/23 08:50:20;;;;;;;1.50;0.82;;;;;;;19.10;58.57;99937.21;2714065;87;21102;-62
2021/05/23 08:54:22;;;;;;;1.82;0.93;;;;;;;19.44;58.64;99934.32;2713410;87;21133;-62
2021/05/23 08:58:25;;;;;;;8.38;1.12;;;;;;;19.75;56.67;99941.25;2714007;87;21101;-62
2021/05/23 09:02:28;;;;;;;10.82;2.17;;;;;;;19.93;55.82;99939.97;2714630;87;21101;-63
2021/05/23 09:06:35;;;;;;;3.35;1.12;;;;;;;20.12;56.20;99940.63;2717644;86;21093;-62
2021/05/23 09:10:38;;;;;;;2.67;0.88;;;;;;;20.28;56.49;99946.76;2717989;87;21100;-62
2021/05/23 09:14:45;;;;;;;1.22;0.57;;;;;;;20.34;54.95;99943.25;2718078;87;21080;-63
2021/05/23 09:18:54;;;;;;;1.37;0.40;;;;;;;20.02;54.95;99952.27;2717121;87;21120;-63
2021/05/23 09:22:56;;;;;;;2.72;1.22;;;;;;;19.61;54.75;99955.14;2717479;87;21137;-66
2021/05/23 09:27:03;;;;;;;2.98;0.62;;;;;;;19.26;56.66;99958.55;2717331;87;21104;-66
2021/05/23 09:31:14;;;;;;;5.60;1.40;;;;;;;19.03;56.04;99960.55;2716897;87;21080;-63
2021/05/23 09:35:18;;;;;;;2.67;0.88;;;;;;;19.16;55.67;99962.55;2717047;87;21119;-61
2021/05/23 09:39:20;;;;;;;3.00;1.20;;;;;;;19.30;55.68;99964.91;2717214;87;21164;-63
2021/05/23 09:43:26;;;;;;;4.92;1.12;;;;;;;19.45;54.06;99967.00;2716915;87;21080;-64
2021/05/23 09:47:31;;;;;;;3.33;1.02;;;;;;;19.49;55.30;99966.97;2716677;87;21112;-62
2021/05/23 09:51:33;;;;;;;1.15;0.88;;;;;;;19.69;54.15;99965.80;2716645;87;21089;-62
2021/05/23 09:55:34;;;;;;;2.10;1.00;;;;;;;19.84;53.49;99967.05;2717333;87;22280;-63
2021/05/23 09:59:36;;;;;;;1.25;0.80;;;;;;;20.11;55.38;99967.81;2717185;87;21041;-66
2021/05/23 10:03:41;;;;;;;1.72;1.10;;;;;;;20.32;54.22;99970.13;2719740;86;21072;-62
2021/05/23 10:07:43;;;;;;;3.00;0.80;;;;;;;20.40;53.90;99978.91;2759427;86;21113;-64
2021/05/23 10:11:44;;;;;;;2.00;0.95;;;;;;;20.61;53.26;99978.52;2759430;86;21077;-65
2021/05/23 10:15:47;;;;;;;2.33;0.80;;;;;;;20.93;55.52;99974.86;2759537;86;21694;-65
2021/05/23 10:19:50;;;;;;;4.37;0.70;;;;;;;21.03;53.50;99973.13;2759163;86;21134;-64
2021/05/23 10:23:55;;;;;;;2.62;0.93;;;;;;;21.11;52.10;99970.77;2759304;86;21164;-65
2021/05/23 10:28:01;;;;;;;1.02;0.53;;;;;;;21.24;52.45;99978.93;2759361;86;21053;-65
2021/05/23 10:32:10;;;;;;;1.98;0.80;;;;;;;21.28;49.54;99971.22;2759082;86;21057;-65
2021/05/23 10:36:13;;;;;;;1.92;1.20;;;;;;;21.27;53.21;99969.55;2759659;86;21045;-65
2021/05/23 10:40:28;;;;;;;1.40;0.75;;;;;;;21.44;53.09;99963.77;2759822;86;21055;-65
2021/05/23 10:44:46;;;;;;;1.57;0.70;;;;;;;21.51;51.12;99957.83;2760076;86;21137;-64
2021/05/23 10:48:57;;;;;;;4.42;1.45;;;;;;;21.42;50.78;99951.81;2759974;86;21653;-65
2021/05/23 10:53:00;;;;;;;0.80;0.50;;;;;;;21.36;51.69;99958.03;2759652;86;21089;-65
2021/05/23 10:57:07;;;;;;;2.37;0.53;;;;;;;21.38;51.00;99955.95;2760181;86;21098;-68
2021/05/23 11:01:12;;;;;;;3.37;0.98;;;;;;;21.38;51.61;99953.24;2721548;86;21093;-62
2021/05/23 11:05:22;;;;;;;1.92;0.80;;;;;;;21.38;52.42;99943.77;2717523;87;21097;-64
2021/05/23 11:09:28;;;;;;;1.80;0.60;;;;;;;21.42;51.98;99947.76;2720223;87;21074;-64
2021/05/23 11:13:35;;;;;;;1.20;0.70;;;;;;;21.30;51.66;99957.50;2719110;87;21044;-64
2021/05/23 11:17:37;;;;;;;2.15;0.62;;;;;;;21.20;51.44;99955.19;2720104;87;21068;-62
2021/05/23 11:21:44;;;;;;;2.05;0.50;;;;;;;21.36;54.35;99956.67;2720514;87;21088;-63
2021/05/23 11:25:48;;;;;;;2.92;0.93;;;;;;;21.54;51.91;99948.80;2720275;87;21104;-64
2021/05/23 11:29:54;;;;;;;2.40;0.98;;;;;;;21.74;54.21;99945.84;2720071;87;21113;-63
2021/05/23 11:33:57;;;;;;;1.35;1.00;;;;;;;21.97;52.14;99936.77;2720262;87;21100;-65
2021/05/23 11:38:00;;;;;;;1.32;0.45;;;;;;;22.01;52.22;99941.75;2720639;87;21064;-64
2021/05/23 11:42:05;;;;;;;1.05;0.70;;;;;;;22.02;51.41;99942.91;2720561;87;21045;-64
2021/05/23 11:46:07;;;;;;;3.83;1.00;;;;;;;22.01;51.50;99946.66;2720378;87;21172;-64
2021/05/23 11:50:25;;;;;;;1.47;0.72;;;;;;;22.10;51.72;99957.57;2720679;87;21101;-64
2021/05/23 11:54:34;;;;;;;1.17;0.70;;;;;;;22.19;50.97;99954.63;2720293;87;21060;-64
2021/05/23 11:58:35;;;;;;;2.02;1.10;;;;;;;22.22;53.56;99955.05;2720478;87;21044;-64
2021/05/23 12:02:37;;;;;;;1.37;0.55;;;;;;;22.26;51.56;99960.35;2719802;87;21061;-63
2021/05/23 12:06:54;;;;;;;1.52;0.70;;;;;;;22.27;51.63;99950.36;2719807;87;21064;-64
2021/05/23 12:11:07;;;;;;;7.10;1.98;;;;;;;22.25;50.20;99956.52;2719833;87;21124;-64
2021/05/23 12:15:19;;;;;;;2.20;0.88;;;;;;;22.07;50.88;99964.77;2719633;87;21106;-64
2021/05/23 12:19:20;;;;;;;1.90;0.95;;;;;;;21.80;51.07;99964.76;2719888;87;21040;-65
2021/05/23 12:23:22;;;;;;;8.75;2.00;;;;;;;21.51;52.43;99975.42;2719659;87;21037;-66
2021/05/23 12:27:46;;;;;;;2.15;1.07;;;;;;;21.17;52.70;99975.35;2719307;87;21061;-66
2021/05/23 12:31:48;;;;;;;4.37;0.85;;;;;;;20.79;52.11;99981.20;2719788;87;21578;-66
2021/05/23 12:35:51;;;;;;;2.12;1.30;;;;;;;20.40;51.18;99982.97;2719791;87;21852;-67
2021/05/23 12:39:53;;;;;;;0.95;0.68;;;;;;;19.94;52.57;99988.88;2719416;87;21069;-67
2021/05/23 12:43:55;;;;;;;2.75;0.62;;;;;;;19.59;53.93;99991.42;2718844;87;21085;-65
2021/05/23 12:47:57;;;;;;;4.22;0.62;;;;;;;19.37;53.30;99988.72;2719210;87;21097;-67
2021/05/23 12:51:58;;;;;;;1.50;0.42;;;;;;;19.39;54.00;99989.36;2719872;87;21053;-63
2021/05/23 12:56:17;;;;;;;2.10;0.55;;;;;;;19.60;52.59;99989.89;2719772;87;21041;-62
2021/05/23 13:00:21;;;;;;;3.42;1.10;;;;;;;19.86;53.12;99992.51;2719372;87;21155;-62
2021/05/23 13:04:24;;;;;;;1.92;1.10;;;;;;;19.97;52.79;99992.53;2719645;87;21109;-63
2021/05/23 13:08:37;;;;;;;2.67;1.07;;;;;;;19.84;53.82;100004.84;2719905;87;21159;-62
2021/05/23 13:12:40;;;;;;;1.25;0.62;;;;;;;19.74;54.46;100009.73;2719502;87;21161;-62
2021/05/23 13:16:51;;;;;;;0.70;0.45;;;;;;;19.61;54.58;100002.36;2719756;87;21068;-62
2021/05/23 13:20:51;;;;;;;0.93;0.70;;;;;;;19.45;55.79;100012.86;2719380;87;21101;-62
2021/05/23 13:24:53;;;;;;;2.65;0.78;;;;;;;19.30;55.13;100019.65;2719893;87;21069;-62
2021/05/23 13:28:54;;;;;;;1.42;0.70;;;;;;;19.18;55.94;100028.74;2719444;87;21064;-62
2021/05/23 13:32:58;;;;;;;0.60;0.60;;;;;;;19.17;56.73;100024.38;2719531;87;21145;-62
2021/05/23 13:37:01;;;;;;;3.37;0.90;;;;;;;19.32;57.27;100022.98;2719346;87;21112;-62
2021/05/23 13:41:03;;;;;;;2.25;0.50;;;;;;;19.41;57.79;100027.76;2719492;87;21129;-63
2021/05/23 13:45:08;;;;;;;27.75;4.97;;;;;;;19.49;54.24;100032.20;2719580;87;21330;-62
2021/05/23 13:49:12;;;;;;;1.40;0.63;;;;;;;19.41;53.23;100041.24;2701412;87;21077;-62
2021/05/23 13:53:14;;;;;;;1.45;0.82;;;;;;;19.35;53.04;100044.17;2675774;89;21277;-62
2021/05/23 13:57:16;;;;;;;0.65;0.45;;;;;;;19.37;53.76;100045.35;2675745;89;21092;-62
2021/05/23 14:01:19;;;;;;;15.23;1.98;;;;;;;19.48;54.90;100051.61;2685837;87;21148;-62
2021/05/23 14:05:20;;;;;;;1.90;0.75;;;;;;;19.52;55.62;100048.84;2682841;87;21095;-62
2021/05/23 14:09:22;;;;;;;1.37;0.50;;;;;;;19.56;54.59;100050.66;2673556;89;21649;-62
2021/05/23 14:13:26;;;;;;;0.80;0.15;;;;;;;19.63;55.40;100059.65;2673884;89;21061;-62
2021/05/23 14:17:29;;;;;;;0.33;0.23;;;;;;;19.61;53.75;100082.44;2674409;88;21092;-62
2021/05/23 14:21:31;;;;;;;1.60;0.13;;;;;;;19.38;54.62;100086.12;2674235;88;21057;-63
2021/05/23 14:25:34;;;;;;;1.17;0.30;;;;;;;19.33;54.94;100098.00;2674238;88;21546;-63
2021/05/23 14:29:36;;;;;;;1.15;0.37;;;;;;;19.14;52.23;100108.33;2674180;88;21129;-62
2021/05/23 14:33:41;;;;;;;1.20;0.50;;;;;;;18.77;52.51;100109.55;2652167;89;21192;-62
2021/05/23 14:37:42;;;;;;;0.88;0.42;;;;;;;18.30;53.39;100116.03;2673957;88;21589;-62
2021/05/23 14:41:44;;;;;;;2.00;0.40;;;;;;;18.00;54.51;100123.45;2673769;88;21100;-63
2021/05/23 14:45:46;;;;;;;0.72;0.45;;;;;;;17.80;56.38;100127.95;2673265;88;21132;-63
2021/05/23 14:49:53;;;;;;;0.68;0.42;;;;;;;17.56;58.33;100135.14;2673207;89;21080;-64
2021/05/23 14:53:54;;;;;;;8.30;0.72;;;;;;;17.40;59.62;100129.83;2680700;87;21116;-65
2021/05/23 14:57:58;;;;;;;0.57;0.40;;;;;;;17.48;61.00;100127.09;2716513;87;21523;-64
2021/05/23 15:02:00;;;;;;;2.52;2.05;;;;;;;17.76;60.40;100132.02;2709008;87;21073;-65
2021/05/23 15:06:05;;;;;;;0.98;0.42;;;;;;;17.94;58.72;100133.06;2719193;86;21118;-65
2021/05/23 15:10:10;;;;;;;5.15;1.02;;;;;;;17.92;58.15;100132.41;2759523;86;21085;-65
2021/05/23 15:14:13;;;;;;;1.20;1.03;;;;;;;17.90;58.44;100130.94;2759881;86;21066;-65
2021/05/23 15:18:19;;;;;;;2.20;1.12;;;;;;;17.82;59.27;100124.56;2759180;86;21400;-65
2021/05/23 15:22:21;;;;;;;1.02;0.70;;;;;;;17.81;59.59;100135.52;2758621;86;21085;-65
2021/05/23 15:26:31;;;;;;;2.45;1.00;;;;;;;17.71;60.37;100139.78;2787427;85;21120;-65
2021/05/23 15:30:34;;;;;;;2.40;0.72;;;;;;;17.60;61.14;100145.54;2786309;85;21167;-65
2021/05/23 15:34:37;;;;;;;1.70;1.05;;;;;;;17.51;61.09;100142.91;2787212;85;21191;-65
2021/05/23 15:38:42;;;;;;;0.80;0.80;;;;;;;17.61;60.68;100140.49;2771197;84;21075;-66
2021/05/23 15:42:44;;;;;;;1.43;0.80;;;;;;;17.52;59.98;100144.58;2704905;88;21085;-65
2021/05/23 15:46:46;;;;;;;2.55;0.82;;;;;;;17.37;60.68;100151.69;2705008;86;21121;-65
2021/05/23 15:50:48;;;;;;;4.55;1.00;;;;;;;17.47;62.37;100146.93;2711056;86;21117;-64
2021/05/23 15:54:55;;;;;;;1.25;0.72;;;;;;;17.43;60.63;100146.95;2749184;86;21125;-65
2021/05/23 15:58:54;;;;;;;0.55;0.40;;;;;;;17.41;61.69;100156.55;2748497;86;21105;-65
2021/05/23 16:02:56;;;;;;;0.30;0.30;;;;;;;17.38;61.87;100154.71;2749301;86;21118;-65
2021/05/23 16:06:58;;;;;;;3.10;0.72;;;;;;;17.46;61.68;100156.01;2750886;86;21065;-65
2021/05/23 16:11:00;;;;;;;2.65;0.60;;;;;;;17.61;62.13;100161.52;2753784;86;21081;-66
2021/05/23 16:15:04;;;;;;;1.45;0.33;;;;;;;17.90;61.82;100160.00;2753544;86;21124;-65
2021/05/23 16:19:06;;;;;;;0.53;0.30;;;;;;;18.23;60.05;100167.06;2753661;85;21041;-65
2021/05/23 16:23:08;;;;;;;0.13;0.10;;;;;;;18.44;59.11;100160.17;2754033;86;21058;-65
2021/05/23 16:27:10;;;;;;;1.37;0.30;;;;;;;18.49;56.98;100165.87;2753826;86;21058;-66
2021/05/23 16:31:13;;;;;;;0.10;0.10;;;;;;;18.54;56.65;100168.85;2754035;86;21097;-66
2021/05/23 16:35:15;;;;;;;0.37;0.35;;;;;;;18.50;54.57;100175.10;2753892;86;21169;-65
2021/05/23 16:39:17;;;;;;;1.25;0.40;;;;;;;18.48;55.70;100177.66;2753831;86;21133;-66
2021/05/23 16:43:19;;;;;;;0.78;0.53;;;;;;;18.45;56.79;100177.51;2754141;86;21070;-65
2021/05/23 16:47:31;;;;;;;0.40;0.30;;;;;;;18.37;56.32;100173.52;2754084;86;21590;-65
2021/05/23 16:51:33;;;;;;;2.27;0.40;;;;;;;18.27;56.03;100177.79;2753862;86;21121;-65
2021/05/23 16:55:38;;;;;;;1.37;0.20;;;;;;;18.18;56.44;100183.77;2753619;85;21101;-65
2021/05/23 16:59:39;;;;;;;4.80;0.55;;;;;;;18.06;55.55;100184.66;2733661;87;21084;-65
2021/05/23 17:03:41;;;;;;;2.55;1.27;;;;;;;17.90;55.65;100188.26;2721292;87;21157;-65
2021/05/23 17:07:43;;;;;;;1.27;0.50;;;;;;;17.80;56.45;100193.86;2752747;86;21090;-65
2021/05/23 17:11:45;;;;;;;1.42;0.98;;;;;;;17.69;56.35;100201.81;2748996;86;21125;-65
2021/05/23 17:15:49;;;;;;;6.30;0.80;;;;;;;17.55;57.08;100208.77;2712755;87;21057;-65
2021/05/23 17:19:50;;;;;;;3.22;0.50;;;;;;;17.44;57.98;100202.40;2748796;86;21154;-65
2021/05/23 17:23:55;;;;;;;1.07;0.68;;;;;;;17.35;58.67;100212.34;2712850;86;21033;-66
2021/05/23 17:27:57;;;;;;;0.75;0.60;;;;;;;17.27;59.48;100217.23;2748626;86;21118;-66
2021/05/23 17:32:02;;;;;;;0.93;0.60;;;;;;;17.19;60.68;100221.29;2712526;87;23562;-65
2021/05/23 17:36:06;;;;;;;1.82;0.80;;;;;;;17.06;60.65;100222.31;2748075;86;21050;-66
2021/05/23 17:40:10;;;;;;;1.57;0.37;;;;;;;16.91;60.88;100225.67;2747148;86;21098;-67
2021/05/23 17:44:14;;;;;;;1.12;0.55;;;;;;;16.74;61.40;100232.88;2748179;86;21109;-66
2021/05/23 17:48:16;;;;;;;1.85;0.50;;;;;;;16.56;61.88;100235.73;2712240;87;21701;-65
2021/05/23 17:52:18;;;;;;;1.95;0.80;;;;;;;16.40;61.77;100241.41;2748390;86;21344;-64
2021/05/23 17:56:19;;;;;;;1.75;0.33;;;;;;;16.23;62.02;100232.98;2711741;87;21122;-64
2021/05/23 18:00:22;;;;;;;1.40;0.68;;;;;;;16.08;62.01;100238.98;2748120;86;21041;-64
2021/05/23 18:04:27;;;;;;;0.85;0.55;;;;;;;15.95;63.20;100243.98;2747958;86;21078;-64
2021/05/23 18:08:28;;;;;;;1.20;0.65;;;;;;;15.82;63.73;100249.26;2753137;86;21137;-64
2021/05/23 18:12:30;;;;;;;0.30;0.30;;;;;;;15.70;64.45;100258.09;2756541;86;21085;-64
2021/05/23 18:16:34;;;;;;;3.77;0.98;;;;;;;15.54;65.13;100255.31;2720255;87;21102;-64
2021/05/23 18:20:37;;;;;;;1.40;0.85;;;;;;;15.44;65.81;100257.28;2757014;86;21081;-64
2021/05/23 18:24:39;;;;;;;0.70;0.55;;;;;;;15.32;66.09;100266.06;2756941;86;21117;-64
2021/05/23 18:28:41;;;;;;;0.85;0.60;;;;;;;15.17;66.51;100272.02;2756370;86;21144;-64
2021/05/23 18:32:43;;;;;;;2.42;0.90;;;;;;;15.04;67.07;100275.59;2719629;86;21176;-67
2021/05/23 18:36:45;;;;;;;25.05;2.77;;;;;;;14.89;66.86;100283.34;2755980;86;21105;-62
2021/05/23 18:40:49;;;;;;;2.45;1.50;;;;;;;14.75;67.40;100284.73;2755583;86;21105;-61
2021/05/23 18:44:52;;;;;;;2.05;0.85;;;;;;;14.68;67.61;100289.30;2719527;86;22280;-62
2021/05/23 18:48:54;;;;;;;2.05;1.30;;;;;;;14.60;67.83;100300.42;2755823;86;21145;-61
2021/05/23 18:52:55;;;;;;;1.75;1.07;;;;;;;14.50;68.22;100301.83;2719110;87;21065;-62
2021/05/23 18:56:58;;;;;;;2.22;0.98;;;;;;;14.33;68.44;100302.98;2755473;86;21610;-62
2021/05/23 19:01:02;;;;;;;2.70;1.45;;;;;;;14.19;68.60;100323.06;2755551;86;21126;-62
2021/05/23 19:05:06;;;;;;;1.30;1.10;;;;;;;14.04;68.73;100322.72;2755559;86;21594;-61